createdAt,value
2023-04-21T00:00:32.191Z,7.60
2023-04-21T00:01:14.693Z,7.60
2023-04-21T00:01:56.520Z,7.50
2023-04-21T00:02:39.838Z,7.40
2023-04-21T00:03:24.060Z,7.60
2023-04-21T00:04:07.120Z,7.60
2023-04-21T00:04:50.016Z,7.30
2023-04-21T00:05:35.786Z,7.60
2023-04-21T00:06:22.846Z,7.90
2023-04-21T00:07:04.940Z,8.20
2023-04-21T00:07:47.048Z,7.70
2023-04-21T00:09:11.531Z,7.40
2023-04-21T00:09:53.439Z,7.30
2023-04-21T00:10:35.461Z,7.30
2023-04-21T00:11:17.405Z,7.60
2023-04-21T00:11:59.411Z,7.70
2023-04-21T00:12:41.484Z,7.30
2023-04-21T00:13:23.896Z,7.50
2023-04-21T00:14:05.905Z,7.30
2023-04-21T00:14:47.709Z,7.60
2023-04-21T00:15:29.806Z,7.70
2023-04-21T00:16:11.913Z,7.60
2023-04-21T00:16:54.040Z,7.30
2023-04-21T00:17:36.057Z,7.40
2023-04-21T00:18:18.436Z,7.40
2023-04-21T00:19:00.484Z,7.50
2023-04-21T00:19:44.353Z,8.00
2023-04-21T00:20:31.496Z,7.50
2023-04-21T00:21:15.698Z,7.80
2023-04-21T00:22:01.440Z,7.80
2023-04-21T00:22:43.695Z,7.60
2023-04-21T00:23:25.558Z,7.40
2023-04-21T00:24:07.700Z,7.60
2023-04-21T00:24:49.449Z,7.90
2023-04-21T00:25:31.513Z,7.40
2023-04-21T00:26:13.584Z,7.80
2023-04-21T00:26:55.492Z,7.50
2023-04-21T00:27:39.454Z,7.70
2023-04-21T00:28:21.879Z,7.50
2023-04-21T00:29:04.351Z,7.80
2023-04-21T00:29:46.365Z,7.70
2023-04-21T00:30:28.258Z,7.50
2023-04-21T00:31:10.034Z,8.30
2023-04-21T00:31:52.059Z,7.50
2023-04-21T00:32:34.094Z,7.50
2023-04-21T00:33:16.031Z,7.60
2023-04-21T00:33:57.804Z,7.50
2023-04-21T00:34:39.573Z,7.40
2023-04-21T00:35:21.528Z,7.60
2023-04-21T00:36:03.577Z,7.60
2023-04-21T00:36:45.534Z,7.50
2023-04-21T00:37:29.385Z,8.00
2023-04-21T00:38:11.505Z,7.80
2023-04-21T00:38:53.560Z,7.60
2023-04-21T00:39:35.476Z,7.90
2023-04-21T00:40:17.328Z,7.60
2023-04-21T00:41:01.334Z,7.90
2023-04-21T00:41:43.543Z,7.70
2023-04-21T00:42:25.882Z,7.50
2023-04-21T00:43:07.802Z,7.50
2023-04-21T00:44:01.990Z,7.50
2023-04-21T00:44:44.389Z,7.60
2023-04-21T00:45:26.353Z,7.70
2023-04-21T00:46:08.158Z,7.20
2023-04-21T00:46:50.076Z,7.40
2023-04-21T00:47:34.961Z,7.50
2023-04-21T00:48:17.109Z,7.70
2023-04-21T00:48:59.644Z,7.50
2023-04-21T00:49:41.851Z,7.70
2023-04-21T00:50:24.053Z,7.60
2023-04-21T00:51:06.171Z,7.60
2023-04-21T00:51:48.201Z,7.90
2023-04-21T00:52:30.724Z,7.50
2023-04-21T00:53:14.830Z,7.40
2023-04-21T00:53:59.638Z,7.60
2023-04-21T00:54:41.670Z,7.50
2023-04-21T00:55:24.044Z,7.30
2023-04-21T00:56:06.071Z,7.70
2023-04-21T00:56:48.176Z,7.50
2023-04-21T00:57:34.432Z,7.30
2023-04-21T00:58:16.195Z,7.60
2023-04-21T00:59:00.018Z,7.40
2023-04-21T00:59:45.722Z,7.50
2023-04-21T01:00:29.952Z,7.30
2023-04-21T01:01:13.806Z,7.60
2023-04-21T01:01:55.784Z,7.40
2023-04-21T01:02:40.241Z,8.10
2023-04-21T01:03:22.394Z,8.10
2023-04-21T01:04:06.113Z,7.70
2023-04-21T01:04:48.278Z,7.80
2023-04-21T01:05:31.726Z,7.40
2023-04-21T01:06:13.770Z,7.50
2023-04-21T01:06:55.602Z,7.60
2023-04-21T01:07:39.926Z,7.50
2023-04-21T01:08:22.208Z,7.30
2023-04-21T01:09:07.302Z,7.60
2023-04-21T01:09:49.209Z,7.50
2023-04-21T01:10:31.261Z,7.50
2023-04-21T01:11:15.212Z,7.60
2023-04-21T01:12:05.087Z,7.50
2023-04-21T01:12:47.934Z,7.80
2023-04-21T01:13:29.753Z,7.70
2023-04-21T01:14:11.680Z,7.80
2023-04-21T01:14:53.726Z,7.40
2023-04-21T01:15:35.741Z,7.60
2023-04-21T01:16:18.727Z,7.50
2023-04-21T01:17:00.887Z,7.40
2023-04-21T01:17:46.074Z,7.70
2023-04-21T01:18:27.973Z,7.90
2023-04-21T01:19:09.992Z,7.30
2023-04-21T01:19:56.312Z,7.60
2023-04-21T01:20:39.074Z,7.70
2023-04-21T01:21:21.891Z,7.50
2023-04-21T01:22:04.679Z,7.30
2023-04-21T01:22:47.004Z,7.40
2023-04-21T01:23:29.691Z,8.60
2023-04-21T01:24:11.936Z,7.70
2023-04-21T01:24:54.062Z,7.80
2023-04-21T01:25:36.211Z,7.40
2023-04-21T01:26:24.847Z,8.40
2023-04-21T01:27:11.579Z,7.50
2023-04-21T01:27:55.612Z,7.90
2023-04-21T01:28:40.098Z,7.80
2023-04-21T01:29:21.856Z,7.60
2023-04-21T01:30:05.128Z,7.90
2023-04-21T01:30:46.933Z,7.50
2023-04-21T01:31:29.175Z,7.70
2023-04-21T01:32:15.948Z,7.80
2023-04-21T01:33:00.186Z,7.60
2023-04-21T01:33:44.744Z,8.00
2023-04-21T01:34:26.627Z,7.60
2023-04-21T01:35:09.158Z,7.70
2023-04-21T01:35:51.291Z,7.70
2023-04-21T01:36:33.317Z,7.80
2023-04-21T01:37:19.190Z,8.00
2023-04-21T01:38:02.114Z,7.80
2023-04-21T01:38:46.745Z,7.70
2023-04-21T01:39:29.194Z,7.90
2023-04-21T01:40:11.357Z,7.70
2023-04-21T01:40:57.522Z,7.80
2023-04-21T01:41:39.818Z,7.60
2023-04-21T01:42:24.275Z,6.00
2023-04-21T01:43:06.472Z,7.80
2023-04-21T01:43:48.222Z,7.90
2023-04-21T01:44:30.286Z,7.50
2023-04-21T01:45:12.898Z,7.40
2023-04-21T01:45:54.898Z,7.60
2023-04-21T01:46:36.826Z,7.50
2023-04-21T01:47:19.240Z,7.80
2023-04-21T01:48:01.449Z,7.40
2023-04-21T01:48:43.371Z,7.40
2023-04-21T01:49:25.349Z,7.90
2023-04-21T01:50:08.224Z,7.40
2023-04-21T01:50:49.999Z,7.70
2023-04-21T01:51:31.796Z,7.90
2023-04-21T01:52:14.233Z,8.20
2023-04-21T01:53:38.367Z,7.70
2023-04-21T01:54:20.592Z,7.60
2023-04-21T01:55:05.177Z,7.90
2023-04-21T01:55:46.971Z,7.60
2023-04-21T01:56:29.259Z,7.60
2023-04-21T01:57:11.584Z,7.60
2023-04-21T01:57:53.534Z,7.70
2023-04-21T01:58:35.341Z,7.70
2023-04-21T01:59:17.416Z,7.80
2023-04-21T02:00:00.018Z,7.70
2023-04-21T02:00:41.881Z,7.80
2023-04-21T02:01:24.271Z,8.00
2023-04-21T02:02:06.419Z,7.80
2023-04-21T02:02:48.437Z,8.00
2023-04-21T02:03:30.562Z,7.90
2023-04-21T02:04:12.485Z,8.00
2023-04-21T02:04:55.180Z,8.00
2023-04-21T02:05:36.928Z,7.80
2023-04-21T02:06:19.243Z,7.60
2023-04-21T02:07:01.111Z,7.50
2023-04-21T02:07:45.710Z,7.60
2023-04-21T02:08:27.458Z,7.70
2023-04-21T02:09:10.243Z,7.80
2023-04-21T02:09:52.053Z,7.90
2023-04-21T02:10:34.606Z,7.60
2023-04-21T02:11:16.562Z,7.70
2023-04-21T02:11:58.594Z,7.90
2023-04-21T02:12:40.569Z,7.60
2023-04-21T02:13:22.418Z,7.90
2023-04-21T02:14:04.479Z,7.90
2023-04-21T02:14:48.165Z,7.70
2023-04-21T02:15:30.079Z,7.80
2023-04-21T02:16:14.231Z,7.80
2023-04-21T02:16:56.537Z,8.00
2023-04-21T02:17:39.361Z,8.80
2023-04-21T02:18:21.836Z,8.00
2023-04-21T02:19:04.328Z,8.50
2023-04-21T02:19:49.886Z,7.80
2023-04-21T02:20:32.661Z,8.00
2023-04-21T02:21:15.708Z,7.60
2023-04-21T02:21:57.550Z,7.70
2023-04-21T02:22:39.693Z,7.60
2023-04-21T02:23:21.655Z,7.60
2023-04-21T02:24:03.685Z,7.80
2023-04-21T02:24:45.600Z,7.50
2023-04-21T02:25:30.244Z,7.60
2023-04-21T02:26:12.020Z,7.70
2023-04-21T02:26:54.349Z,7.40
2023-04-21T02:27:36.202Z,7.70
2023-04-21T02:28:20.154Z,7.30
2023-04-21T02:29:02.693Z,7.40
2023-04-21T02:29:46.884Z,7.20
2023-04-21T02:30:28.735Z,7.50
2023-04-21T02:31:11.099Z,7.30
2023-04-21T02:32:02.942Z,7.40
2023-04-21T02:32:52.516Z,6.80
2023-04-21T02:33:36.086Z,7.10
2023-04-21T02:34:20.276Z,7.30
2023-04-21T02:35:02.086Z,7.10
2023-04-21T02:35:46.199Z,7.30
2023-04-21T02:36:30.134Z,7.30
2023-04-21T02:37:12.016Z,7.00
2023-04-21T02:37:53.797Z,6.90
2023-04-21T02:38:35.735Z,6.90
2023-04-21T02:39:17.752Z,7.10
2023-04-21T02:40:00.264Z,7.00
2023-04-21T02:40:42.704Z,7.30
2023-04-21T02:41:25.115Z,7.20
2023-04-21T02:42:06.930Z,6.70
2023-04-21T02:42:48.683Z,7.10
2023-04-21T02:43:31.115Z,7.30
2023-04-21T02:44:15.086Z,7.30
2023-04-21T02:44:57.017Z,7.30
2023-04-21T02:45:38.790Z,7.20
2023-04-21T02:46:20.742Z,7.00
2023-04-21T02:47:02.640Z,7.20
2023-04-21T02:47:45.629Z,7.50
2023-04-21T02:48:30.743Z,7.00
2023-04-21T02:49:12.642Z,7.30
2023-04-21T02:49:55.170Z,7.40
2023-04-21T02:50:36.996Z,7.10
2023-04-21T02:51:18.802Z,7.30
2023-04-21T02:52:00.705Z,7.10
2023-04-21T02:52:42.542Z,7.20
2023-04-21T02:53:24.606Z,7.20
2023-04-21T02:54:07.109Z,7.60
2023-04-21T02:54:51.263Z,7.40
2023-04-21T02:55:35.429Z,7.10
2023-04-21T02:56:17.216Z,7.20
2023-04-21T02:57:01.408Z,7.80
2023-04-21T02:57:45.614Z,6.90
2023-04-21T02:58:27.373Z,7.60
2023-04-21T02:59:11.460Z,6.80
2023-04-21T02:59:55.598Z,6.80
2023-04-21T03:00:37.620Z,7.00
2023-04-21T03:01:19.814Z,6.90
2023-04-21T03:02:01.928Z,7.00
2023-04-21T03:02:44.682Z,7.00
2023-04-21T03:03:26.996Z,6.80
2023-04-21T03:04:09.782Z,7.10
2023-04-21T03:04:51.918Z,6.90
2023-04-21T03:05:33.774Z,6.80
2023-04-21T03:06:15.574Z,6.80
2023-04-21T03:06:57.816Z,6.90
2023-04-21T03:07:39.754Z,6.90
2023-04-21T03:08:21.514Z,7.00
2023-04-21T03:09:03.675Z,6.80
2023-04-21T03:09:45.435Z,7.10
2023-04-21T03:10:27.299Z,7.10
2023-04-21T03:11:11.175Z,6.80
2023-04-21T03:11:53.000Z,6.70
2023-04-21T03:12:35.371Z,6.70
2023-04-21T03:13:17.225Z,6.90
2023-04-21T03:14:01.140Z,6.60
2023-04-21T03:14:42.944Z,6.70
2023-04-21T03:15:25.480Z,6.70
2023-04-21T03:16:07.453Z,6.80
2023-04-21T03:16:49.955Z,6.40
2023-04-21T03:17:33.276Z,7.00
2023-04-21T03:18:15.598Z,6.90
2023-04-21T03:18:57.432Z,6.90
2023-04-21T03:19:40.048Z,6.70
2023-04-21T03:21:04.787Z,7.20
2023-04-21T03:21:46.863Z,6.90
2023-04-21T03:22:30.829Z,6.80
2023-04-21T03:23:12.728Z,6.60
2023-04-21T03:23:54.792Z,6.80
2023-04-21T03:24:36.964Z,6.70
2023-04-21T03:25:18.774Z,6.80
2023-04-21T03:26:00.660Z,6.60
2023-04-21T03:26:42.514Z,6.80
2023-04-21T03:27:24.682Z,6.70
2023-04-21T03:28:06.569Z,6.60
2023-04-21T03:28:50.621Z,6.60
2023-04-21T03:29:32.435Z,6.40
2023-04-21T03:30:14.751Z,6.40
2023-04-21T03:30:56.532Z,6.60
2023-04-21T03:31:40.642Z,6.60
2023-04-21T03:32:22.599Z,6.70
2023-04-21T03:33:05.052Z,6.80
2023-04-21T03:33:47.012Z,6.60
2023-04-21T03:34:28.785Z,6.70
2023-04-21T03:35:10.611Z,6.60
2023-04-21T03:35:52.440Z,6.70
2023-04-21T03:36:36.371Z,6.70
2023-04-21T03:37:18.148Z,6.80
2023-04-21T03:38:02.003Z,7.30
2023-04-21T03:38:45.650Z,7.40
2023-04-21T03:39:27.493Z,6.80
2023-04-21T03:40:09.932Z,6.50
2023-04-21T03:40:51.679Z,6.80
2023-04-21T03:41:36.644Z,7.10
2023-04-21T03:42:18.415Z,6.80
2023-04-21T03:43:00.658Z,6.60
2023-04-21T03:43:42.414Z,6.80
2023-04-21T03:44:27.226Z,6.60
2023-04-21T03:45:12.709Z,6.50
2023-04-21T03:45:55.014Z,6.70
2023-04-21T03:46:36.830Z,6.60
2023-04-21T03:47:21.168Z,6.30
2023-04-21T03:48:06.035Z,6.50
2023-04-21T03:48:50.715Z,6.50
2023-04-21T03:49:35.001Z,6.50
2023-04-21T03:50:17.377Z,6.20
2023-04-21T03:50:59.194Z,8.70
2023-04-21T03:51:41.336Z,6.60
2023-04-21T03:52:25.999Z,6.60
2023-04-21T03:53:07.781Z,6.60
2023-04-21T03:53:50.034Z,6.20
2023-04-21T03:54:31.859Z,6.30
2023-04-21T03:55:15.945Z,6.50
2023-04-21T03:56:00.021Z,6.60
2023-04-21T03:56:41.826Z,6.60
2023-04-21T03:57:24.029Z,6.60
2023-04-21T03:58:05.801Z,6.70
2023-04-21T03:58:49.590Z,6.70
2023-04-21T03:59:31.812Z,6.40
2023-04-21T04:00:14.058Z,6.40
2023-04-21T04:00:55.877Z,6.40
2023-04-21T04:01:40.005Z,6.40
2023-04-21T04:02:22.092Z,6.40
2023-04-21T04:03:04.584Z,6.70
2023-04-21T04:03:46.608Z,6.40
2023-04-21T04:04:31.034Z,6.60
2023-04-21T04:05:13.305Z,6.50
2023-04-21T04:05:56.160Z,6.60
2023-04-21T04:06:37.978Z,6.60
2023-04-21T04:07:19.766Z,6.70
2023-04-21T04:08:01.999Z,6.30
2023-04-21T04:08:44.125Z,6.60
2023-04-21T04:09:26.097Z,6.60
2023-04-21T04:10:08.000Z,6.50
2023-04-21T04:10:49.850Z,6.30
2023-04-21T04:11:32.345Z,6.60
2023-04-21T04:12:14.713Z,6.50
2023-04-21T04:12:56.568Z,6.70
2023-04-21T04:13:38.341Z,6.40
2023-04-21T04:14:20.317Z,6.60
2023-04-21T04:15:05.196Z,6.60
2023-04-21T04:15:47.368Z,6.60
2023-04-21T04:16:29.982Z,6.50
2023-04-21T04:17:11.906Z,6.30
2023-04-21T04:17:54.176Z,6.00
2023-04-21T04:18:36.020Z,6.40
2023-04-21T04:19:20.329Z,6.40
2023-04-21T04:20:04.745Z,6.50
2023-04-21T04:20:46.839Z,6.60
2023-04-21T04:21:29.085Z,6.40
2023-04-21T04:22:10.879Z,6.30
2023-04-21T04:22:54.764Z,6.50
2023-04-21T04:23:36.870Z,6.50
2023-04-21T04:24:19.457Z,6.40
2023-04-21T04:25:01.894Z,6.50
2023-04-21T04:25:44.155Z,6.40
2023-04-21T04:26:26.860Z,6.60
2023-04-21T04:27:09.777Z,6.60
2023-04-21T04:27:51.694Z,6.50
2023-04-21T04:28:34.067Z,6.50
2023-04-21T04:29:16.283Z,6.40
2023-04-21T04:29:58.083Z,6.60
2023-04-21T04:30:39.916Z,6.60
2023-04-21T04:31:22.444Z,6.60
2023-04-21T04:32:06.728Z,6.50
2023-04-21T04:32:48.571Z,6.60
2023-04-21T04:33:32.958Z,6.50
2023-04-21T04:34:18.051Z,5.60
2023-04-21T04:34:59.920Z,6.40
2023-04-21T04:35:42.050Z,6.60
2023-04-21T04:36:25.202Z,6.60
2023-04-21T04:37:07.216Z,6.60
2023-04-21T04:37:49.692Z,6.40
2023-04-21T04:38:34.710Z,6.40
2023-04-21T04:39:17.480Z,6.30
2023-04-21T04:39:59.743Z,6.50
2023-04-21T04:40:42.587Z,6.30
2023-04-21T04:41:24.882Z,6.40
2023-04-21T04:42:10.109Z,6.20
2023-04-21T04:42:52.412Z,6.70
2023-04-21T04:43:36.924Z,6.30
2023-04-21T04:44:19.550Z,6.50
2023-04-21T04:45:02.006Z,6.30
2023-04-21T04:45:45.461Z,6.50
2023-04-21T04:46:28.322Z,6.50
2023-04-21T04:47:10.482Z,6.60
2023-04-21T04:47:54.850Z,7.30
2023-04-21T04:48:37.194Z,6.70
2023-04-21T04:49:19.294Z,6.30
2023-04-21T04:50:01.082Z,6.40
2023-04-21T04:50:45.550Z,6.40
2023-04-21T04:51:30.275Z,6.40
2023-04-21T04:52:12.132Z,6.30
2023-04-21T04:52:54.315Z,6.40
2023-04-21T04:53:36.200Z,6.50
2023-04-21T04:54:20.431Z,6.30
2023-04-21T04:55:04.976Z,6.60
2023-04-21T04:55:47.256Z,6.30
2023-04-21T04:56:33.246Z,6.60
2023-04-21T04:57:15.097Z,6.40
2023-04-21T04:57:56.929Z,6.40
2023-04-21T04:58:39.154Z,6.40
2023-04-21T04:59:23.398Z,6.40
2023-04-21T05:00:11.089Z,6.30
2023-04-21T05:00:55.078Z,6.50
2023-04-21T05:01:38.205Z,6.70
2023-04-21T05:02:22.397Z,6.40
2023-04-21T05:03:05.268Z,6.60
2023-04-21T05:03:47.772Z,6.60
2023-04-21T05:04:30.215Z,5.80
2023-04-21T05:05:12.257Z,6.60
2023-04-21T05:05:54.308Z,6.40
2023-04-21T05:06:36.174Z,6.60
2023-04-21T05:07:20.067Z,6.60
2023-04-21T05:08:02.162Z,6.80
2023-04-21T05:08:43.955Z,6.60
2023-04-21T05:09:28.313Z,6.70
2023-04-21T05:10:10.464Z,6.60
2023-04-21T05:10:52.494Z,6.70
2023-04-21T05:11:34.630Z,6.80
2023-04-21T05:12:16.457Z,6.70
2023-04-21T05:12:58.252Z,6.80
2023-04-21T05:13:40.371Z,4.80
2023-04-21T05:14:22.599Z,6.90
2023-04-21T05:15:06.209Z,7.00
2023-04-21T05:15:48.069Z,6.90
2023-04-21T05:16:30.119Z,6.80
2023-04-21T05:17:12.228Z,6.60
2023-04-21T05:17:54.379Z,7.90
2023-04-21T05:18:36.265Z,7.10
2023-04-21T05:19:18.919Z,7.00
2023-04-21T05:20:03.182Z,7.20
2023-04-21T05:20:45.068Z,6.90
2023-04-21T05:21:27.850Z,6.70
2023-04-21T05:22:10.104Z,6.70
2023-04-21T05:22:52.213Z,7.10
2023-04-21T05:23:34.254Z,6.90
2023-04-21T05:24:16.120Z,6.40
2023-04-21T05:25:00.125Z,6.70
2023-04-21T05:25:42.254Z,6.70
2023-04-21T05:26:30.505Z,6.40
2023-04-21T05:27:12.660Z,6.60
2023-04-21T05:27:54.752Z,6.70
2023-04-21T05:28:36.641Z,6.80
2023-04-21T05:29:18.443Z,6.30
2023-04-21T05:30:03.416Z,6.70
2023-04-21T05:30:45.396Z,6.80
2023-04-21T05:31:27.538Z,6.80
2023-04-21T05:32:12.195Z,6.70
2023-04-21T05:32:54.372Z,6.70
2023-04-21T05:33:36.155Z,6.70
2023-04-21T05:34:20.383Z,6.70
2023-04-21T05:35:02.371Z,6.80
2023-04-21T05:35:44.145Z,6.70
2023-04-21T05:36:26.048Z,7.00
2023-04-21T05:37:09.950Z,6.80
2023-04-21T05:37:51.704Z,6.70
2023-04-21T05:38:33.499Z,6.60
2023-04-21T05:39:16.515Z,6.90
2023-04-21T05:39:58.317Z,6.70
2023-04-21T05:40:40.146Z,7.90
2023-04-21T05:41:22.678Z,6.90
2023-04-21T05:42:05.104Z,6.80
2023-04-21T05:42:46.966Z,9.40
2023-04-21T05:43:29.450Z,6.90
2023-04-21T05:44:11.225Z,6.90
2023-04-21T05:44:54.160Z,8.00
2023-04-21T05:45:39.989Z,6.60
2023-04-21T05:46:21.846Z,6.80
2023-04-21T05:47:07.374Z,6.60
2023-04-21T05:47:49.292Z,6.60
2023-04-21T05:48:33.716Z,6.60
2023-04-21T05:49:15.752Z,6.80
2023-04-21T05:49:57.863Z,6.80
2023-04-21T05:50:39.961Z,6.70
2023-04-21T05:51:21.753Z,7.10
2023-04-21T05:52:03.656Z,6.50
2023-04-21T05:52:45.707Z,6.80
2023-04-21T05:53:31.349Z,6.70
2023-04-21T05:54:15.464Z,6.70
2023-04-21T05:54:59.545Z,6.90
2023-04-21T05:55:41.344Z,6.70
2023-04-21T05:56:25.502Z,6.90
2023-04-21T05:57:08.571Z,6.70
2023-04-21T05:57:50.278Z,6.80
2023-04-21T05:58:32.382Z,7.10
2023-04-21T05:59:14.539Z,6.90
2023-04-21T05:59:56.290Z,6.80
2023-04-21T06:00:40.154Z,7.00
2023-04-21T06:01:21.965Z,7.00
2023-04-21T06:02:04.477Z,7.10
2023-04-21T06:02:46.666Z,6.90
2023-04-21T06:03:31.860Z,6.70
2023-04-21T06:04:14.128Z,6.90
2023-04-21T06:04:56.330Z,7.10
2023-04-21T06:05:40.445Z,6.90
2023-04-21T06:06:22.503Z,6.90
2023-04-21T06:07:10.370Z,7.50
2023-04-21T06:07:52.515Z,6.90
2023-04-21T06:08:34.528Z,7.10
2023-04-21T06:09:16.401Z,7.10
2023-04-21T06:10:00.444Z,7.00
2023-04-21T06:10:42.488Z,7.20
2023-04-21T06:11:24.577Z,7.30
2023-04-21T06:12:06.724Z,7.30
2023-04-21T06:12:49.436Z,7.30
2023-04-21T06:13:33.539Z,7.20
2023-04-21T06:14:15.486Z,7.10
2023-04-21T06:14:57.816Z,7.20
2023-04-21T06:15:39.988Z,7.30
2023-04-21T06:16:21.892Z,7.20
2023-04-21T06:17:03.760Z,7.10
2023-04-21T06:17:45.629Z,7.40
2023-04-21T06:18:27.904Z,7.40
2023-04-21T06:19:09.754Z,7.30
2023-04-21T06:19:55.654Z,7.30
2023-04-21T06:20:37.516Z,7.50
2023-04-21T06:21:19.505Z,7.30
2023-04-21T06:22:01.641Z,7.40
2023-04-21T06:22:45.515Z,7.60
2023-04-21T06:23:27.557Z,7.60
2023-04-21T06:24:09.599Z,7.70
2023-04-21T06:24:51.524Z,7.80
2023-04-21T06:25:33.989Z,7.50
2023-04-21T06:26:15.967Z,7.90
2023-04-21T06:26:58.062Z,7.50
2023-04-21T06:27:40.566Z,7.60
2023-04-21T06:28:22.585Z,8.00
2023-04-21T06:29:04.583Z,7.50
2023-04-21T06:29:46.428Z,7.80
2023-04-21T06:30:31.011Z,7.80
2023-04-21T06:31:15.612Z,7.40
2023-04-21T06:31:57.691Z,7.60
2023-04-21T06:32:39.760Z,8.00
2023-04-21T06:33:21.641Z,7.90
2023-04-21T06:34:05.757Z,8.30
2023-04-21T06:34:47.563Z,7.60
2023-04-21T06:35:29.677Z,7.60
2023-04-21T06:36:11.500Z,7.90
2023-04-21T06:36:55.779Z,7.80
2023-04-21T06:37:38.002Z,7.90
2023-04-21T06:38:20.550Z,8.10
2023-04-21T06:39:04.698Z,10.30
2023-04-21T06:39:46.567Z,8.00
2023-04-21T06:40:30.683Z,7.80
2023-04-21T06:41:12.628Z,7.90
2023-04-21T06:41:55.039Z,7.70
2023-04-21T06:42:36.812Z,8.30
2023-04-21T06:43:18.676Z,8.10
2023-04-21T06:44:00.552Z,8.40
2023-04-21T06:44:42.690Z,8.20
2023-04-21T06:45:24.737Z,8.60
2023-04-21T06:46:06.902Z,8.20
2023-04-21T06:46:48.732Z,8.30
2023-04-21T06:47:30.600Z,9.20
2023-04-21T06:48:12.680Z,8.20
2023-04-21T06:48:54.570Z,8.30
2023-04-21T06:49:37.420Z,8.10
2023-04-21T06:50:21.448Z,8.10
2023-04-21T06:51:05.736Z,8.50
2023-04-21T06:51:47.715Z,8.30
2023-04-21T06:52:29.658Z,8.20
2023-04-21T06:53:11.821Z,8.20
2023-04-21T06:53:53.595Z,8.60
2023-04-21T06:54:35.720Z,8.40
2023-04-21T06:55:17.614Z,8.30
2023-04-21T06:55:59.724Z,8.60
2023-04-21T06:56:42.936Z,8.00
2023-04-21T06:57:25.093Z,8.20
2023-04-21T06:58:07.084Z,8.30
2023-04-21T06:58:48.873Z,8.10
2023-04-21T06:59:30.805Z,8.10
2023-04-21T07:00:13.891Z,8.20
2023-04-21T07:00:55.754Z,8.10
2023-04-21T07:01:37.714Z,8.30
2023-04-21T07:02:19.800Z,8.60
2023-04-21T07:03:01.727Z,8.40
2023-04-21T07:03:43.838Z,8.50
2023-04-21T07:04:30.138Z,8.40
2023-04-21T07:05:12.083Z,8.40
2023-04-21T07:05:53.857Z,8.30
2023-04-21T07:06:35.779Z,8.50
2023-04-21T07:07:17.728Z,8.40
2023-04-21T07:08:00.067Z,8.80
2023-04-21T07:08:41.953Z,8.80
2023-04-21T07:09:23.830Z,8.50
2023-04-21T07:10:06.311Z,8.60
2023-04-21T07:10:48.227Z,9.00
2023-04-21T07:11:30.561Z,8.60
2023-04-21T07:12:12.449Z,9.00
2023-04-21T07:12:54.925Z,9.00
2023-04-21T07:13:36.785Z,8.80
2023-04-21T07:14:18.813Z,8.50
2023-04-21T07:15:00.650Z,8.40
2023-04-21T07:15:42.825Z,8.40
2023-04-21T07:16:24.746Z,8.60
2023-04-21T07:17:06.758Z,8.60
2023-04-21T07:17:48.887Z,8.80
2023-04-21T07:18:30.790Z,9.00
2023-04-21T07:19:12.854Z,9.00
2023-04-21T07:19:54.623Z,9.30
2023-04-21T07:20:37.106Z,9.10
2023-04-21T07:21:19.167Z,9.50
2023-04-21T07:22:00.950Z,9.10
2023-04-21T07:22:42.900Z,9.40
2023-04-21T07:23:24.802Z,9.60
2023-04-21T07:24:07.012Z,9.50
2023-04-21T07:24:49.552Z,9.40
2023-04-21T07:25:33.763Z,9.50
2023-04-21T07:26:15.996Z,9.60
2023-04-21T07:26:58.041Z,9.30
2023-04-21T07:27:40.268Z,9.30
2023-04-21T07:28:22.235Z,9.60
2023-04-21T07:29:04.341Z,9.50
2023-04-21T07:29:46.146Z,9.40
2023-04-21T07:30:29.040Z,9.60
2023-04-21T07:31:10.876Z,9.40
2023-04-21T07:31:53.964Z,9.10
2023-04-21T07:32:37.405Z,9.40
2023-04-21T07:33:19.462Z,9.20
2023-04-21T07:34:01.245Z,9.40
2023-04-21T07:34:46.254Z,9.40
2023-04-21T07:35:28.419Z,9.20
2023-04-21T07:36:10.659Z,9.70
2023-04-21T07:36:55.280Z,9.70
2023-04-21T07:37:37.260Z,9.40
2023-04-21T07:38:19.138Z,9.20
2023-04-21T07:39:00.986Z,9.80
2023-04-21T07:39:43.406Z,9.50
2023-04-21T07:40:25.567Z,9.60
2023-04-21T07:41:07.413Z,9.90
2023-04-21T07:41:52.235Z,10.00
2023-04-21T07:42:34.060Z,9.90
2023-04-21T07:43:15.927Z,9.90
2023-04-21T07:43:58.041Z,10.40
2023-04-21T07:44:40.001Z,9.50
2023-04-21T07:45:24.391Z,9.70
2023-04-21T07:46:09.420Z,9.60
2023-04-21T07:46:51.311Z,9.80
2023-04-21T07:47:35.869Z,9.90
2023-04-21T07:48:18.020Z,9.70
2023-04-21T07:49:02.826Z,9.50
2023-04-21T07:49:45.693Z,9.40
2023-04-21T07:50:27.497Z,9.80
2023-04-21T07:51:09.736Z,9.50
2023-04-21T07:51:54.272Z,9.30
2023-04-21T07:52:36.033Z,9.80
2023-04-21T07:53:18.062Z,10.40
2023-04-21T07:53:59.991Z,10.00
2023-04-21T07:54:41.900Z,9.90
2023-04-21T07:55:24.049Z,9.80
2023-04-21T07:56:07.540Z,9.90
2023-04-21T07:56:49.801Z,10.20
2023-04-21T07:57:33.862Z,10.20
2023-04-21T07:58:16.450Z,10.50
2023-04-21T07:58:58.537Z,9.90
2023-04-21T07:59:40.772Z,10.20
2023-04-21T08:00:23.131Z,9.70
2023-04-21T08:01:05.181Z,9.50
2023-04-21T08:01:47.186Z,9.80
2023-04-21T08:02:29.283Z,9.80
2023-04-21T08:03:11.389Z,10.00
2023-04-21T08:03:53.662Z,9.70
2023-04-21T08:04:35.608Z,9.80
2023-04-21T08:05:17.616Z,9.70
2023-04-21T08:05:59.977Z,10.10
2023-04-21T08:06:44.266Z,10.00
2023-04-21T08:07:26.126Z,10.00
2023-04-21T08:08:08.216Z,10.00
2023-04-21T08:08:50.407Z,10.10
2023-04-21T08:09:32.296Z,9.70
2023-04-21T08:10:14.248Z,10.10
2023-04-21T08:10:56.313Z,9.90
2023-04-21T08:11:38.232Z,10.00
2023-04-21T08:12:20.177Z,10.10
2023-04-21T08:13:03.341Z,10.50
2023-04-21T08:13:45.151Z,10.40
2023-04-21T08:14:27.157Z,10.60
2023-04-21T08:15:09.220Z,10.70
2023-04-21T08:15:54.155Z,10.50
2023-04-21T08:16:36.127Z,10.50
2023-04-21T08:17:18.292Z,10.60
2023-04-21T08:18:00.238Z,10.40
2023-04-21T08:18:42.173Z,10.60
2023-04-21T08:19:24.251Z,10.70
2023-04-21T08:20:06.821Z,10.30
2023-04-21T08:20:49.077Z,10.70
2023-04-21T08:21:32.037Z,10.70
2023-04-21T08:22:15.978Z,10.80
2023-04-21T08:22:58.278Z,10.40
2023-04-21T08:23:40.215Z,10.40
2023-04-21T08:24:24.396Z,10.50
2023-04-21T08:25:06.622Z,11.00
2023-04-21T08:25:48.774Z,10.60
2023-04-21T08:26:30.799Z,10.70
2023-04-21T08:27:12.629Z,10.70
2023-04-21T08:27:54.402Z,10.70
2023-04-21T08:28:36.205Z,11.00
2023-04-21T08:29:18.270Z,10.50
2023-04-21T08:30:00.570Z,11.00
2023-04-21T08:30:42.668Z,10.90
2023-04-21T08:31:25.136Z,10.90
2023-04-21T08:32:09.222Z,10.80
2023-04-21T08:32:51.081Z,10.70
2023-04-21T08:33:33.217Z,11.30
2023-04-21T08:34:15.334Z,11.00
2023-04-21T08:34:57.229Z,11.10
2023-04-21T08:35:47.940Z,11.40
2023-04-21T08:36:37.326Z,11.40
2023-04-21T08:37:19.566Z,11.10
2023-04-21T08:38:01.577Z,11.30
2023-04-21T08:38:44.639Z,11.00
2023-04-21T08:39:26.959Z,11.10
2023-04-21T08:40:09.334Z,11.60
2023-04-21T08:40:51.541Z,11.50
2023-04-21T08:41:34.388Z,11.30
2023-04-21T08:42:20.460Z,11.20
2023-04-21T08:43:02.462Z,11.00
2023-04-21T08:43:44.285Z,11.50
2023-04-21T08:44:26.517Z,11.10
2023-04-21T08:45:09.319Z,11.40
2023-04-21T08:45:54.382Z,11.20
2023-04-21T08:46:36.835Z,11.30
2023-04-21T08:47:20.668Z,11.40
2023-04-21T08:48:04.725Z,11.30
2023-04-21T08:48:47.308Z,11.10
2023-04-21T08:49:31.261Z,11.60
2023-04-21T08:50:14.609Z,11.60
2023-04-21T08:50:56.876Z,11.60
2023-04-21T08:51:39.223Z,11.80
2023-04-21T08:52:21.016Z,11.90
2023-04-21T08:53:02.869Z,11.60
2023-04-21T08:53:44.939Z,11.70
2023-04-21T08:54:29.763Z,11.60
2023-04-21T08:55:13.578Z,11.80
2023-04-21T08:56:09.972Z,11.90
2023-04-21T08:56:58.858Z,12.20
2023-04-21T08:57:46.571Z,12.20
2023-04-21T08:58:28.376Z,12.00
2023-04-21T08:59:10.242Z,12.10
2023-04-21T08:59:54.335Z,12.20
2023-04-21T09:00:36.563Z,12.20
2023-04-21T09:01:18.586Z,12.20
2023-04-21T09:02:17.465Z,12.20
2023-04-21T09:03:02.373Z,11.70
2023-04-21T09:03:45.036Z,11.60
2023-04-21T09:04:31.235Z,11.80
2023-04-21T09:05:23.245Z,11.80
2023-04-21T09:06:08.255Z,11.60
2023-04-21T09:06:50.802Z,12.10
2023-04-21T09:07:37.619Z,11.90
2023-04-21T09:08:19.481Z,12.20
2023-04-21T09:09:02.709Z,12.00
2023-04-21T09:09:55.372Z,12.10
2023-04-21T09:10:51.232Z,12.60
2023-04-21T09:11:35.228Z,12.70
2023-04-21T09:12:17.622Z,12.50
2023-04-21T09:13:06.390Z,12.60
2023-04-21T09:13:48.491Z,12.70
2023-04-21T09:14:33.349Z,13.10
2023-04-21T09:15:15.222Z,13.20
2023-04-21T09:15:57.108Z,13.10
2023-04-21T09:16:39.073Z,13.00
2023-04-21T09:17:27.238Z,12.90
2023-04-21T09:18:14.550Z,12.80
2023-04-21T09:18:56.935Z,12.80
2023-04-21T09:19:39.106Z,13.00
2023-04-21T09:20:22.797Z,12.90
2023-04-21T09:21:15.903Z,13.00
2023-04-21T09:21:57.965Z,13.00
2023-04-21T09:22:40.145Z,12.90
2023-04-21T09:23:24.228Z,12.50
2023-04-21T09:24:06.994Z,13.00
2023-04-21T09:24:49.742Z,13.00
2023-04-21T09:25:35.249Z,13.30
2023-04-21T09:26:19.815Z,13.40
2023-04-21T09:27:04.711Z,13.30
2023-04-21T09:27:47.700Z,13.40
2023-04-21T09:28:32.564Z,13.40
2023-04-21T09:29:15.357Z,13.30
2023-04-21T09:30:07.179Z,13.40